Time;durP1;ratioP1;P1;durP2;ratioP2;P2;SDS_P1;SDS_P2;PMS_P1;PMS_P2;Temp;Humidity;BMP_temperature;BMP_pressure;BME280_temperature;BME280_humidity;BME280_pressure;Samples;Min_cycle;Max_cycle;Signal;HPM_P1;HPM_P2
2022/01/17 00:00:08;;;;;;;13.85;8.90;;;8.70;89.20;;;;;;4994050;28;20633;-74
2022/01/17 00:02:34;;;;;;;15.52;9.05;;;8.70;89.20;;;;;;4994169;28;20402;-76
2022/01/17 00:04:59;;;;;;;13.02;8.30;;;8.70;89.20;;;;;;4994124;28;20026;-76
2022/01/17 00:07:29;;;;;;;13.88;8.43;;;8.70;89.20;;;;;;4993899;28;20030;-77
2022/01/17 00:09:54;;;;;;;14.38;8.15;;;8.70;89.20;;;;;;4995280;28;20018;-76
2022/01/17 00:12:20;;;;;;;14.10;7.82;;;8.70;89.20;;;;;;4994877;28;20033;-76
2022/01/17 00:14:46;;;;;;;13.18;7.72;;;8.70;89.20;;;;;;4993980;28;20026;-76
2022/01/17 00:19:46;;;;;;;13.07;7.88;;;8.70;89.70;;;;;;4995370;28;20027;-77
2022/01/17 00:22:14;;;;;;;13.48;7.28;;;8.70;89.20;;;;;;4993559;28;20026;-76
2022/01/17 00:24:41;;;;;;;13.80;7.07;;;8.70;89.20;;;;;;4993761;28;20505;-76
2022/01/17 00:27:07;;;;;;;11.65;6.70;;;8.70;89.30;;;;;;4994948;28;20038;-73
2022/01/17 00:29:32;;;;;;;12.25;7.20;;;8.70;89.30;;;;;;4993568;28;20536;-77
2022/01/17 00:31:58;;;;;;;12.93;7.07;;;8.70;89.30;;;;;;4994519;28;20097;-76
2022/01/17 00:34:24;;;;;;;11.95;6.53;;;8.70;89.30;;;;;;4993644;28;20026;-75
2022/01/17 00:36:50;;;;;;;11.48;6.10;;;8.70;89.30;;;;;;4993552;28;20528;-76
2022/01/17 00:39:16;;;;;;;9.88;5.65;;;8.70;89.30;;;;;;4994659;28;20030;-76
2022/01/17 00:41:42;;;;;;;12.95;6.28;;;8.70;89.30;;;;;;4994283;28;20492;-76
2022/01/17 00:44:08;;;;;;;12.63;5.70;;;8.70;89.30;;;;;;4994624;28;20030;-76
2022/01/17 00:46:34;;;;;;;10.80;5.38;;;8.70;89.30;;;;;;4993422;28;20132;-76
2022/01/17 00:48:59;;;;;;;10.90;5.40;;;8.70;89.30;;;;;;4993090;28;20022;-77
2022/01/17 00:51:25;;;;;;;9.40;5.10;;;8.70;89.30;;;;;;4994222;28;20110;-76
2022/01/17 00:53:51;;;;;;;9.45;5.30;;;8.70;89.30;;;;;;4993891;28;20470;-76
2022/01/17 00:56:19;;;;;;;9.60;5.03;;;8.70;89.30;;;;;;4994241;28;20022;-76
2022/01/17 00:58:44;;;;;;;9.48;4.95;;;8.70;89.30;;;;;;4994377;28;20543;-76
2022/01/17 01:01:10;;;;;;;9.77;4.43;;;8.70;89.30;;;;;;4992701;28;20109;-76
2022/01/17 01:03:36;;;;;;;10.13;5.10;;;8.70;89.40;;;;;;4993006;28;20038;-79
2022/01/17 01:06:02;;;;;;;8.45;3.90;;;8.70;89.40;;;;;;4993013;28;20026;-76
2022/01/17 01:08:28;;;;;;;8.27;4.20;;;8.70;89.40;;;;;;4994143;28;20030;-76
2022/01/17 01:10:53;;;;;;;8.77;4.22;;;8.70;89.40;;;;;;4992514;28;20029;-76
2022/01/17 01:13:22;;;;;;;9.70;3.55;;;8.70;89.40;;;;;;4994018;28;20033;-77
2022/01/17 01:16:10;;;;;;;8.70;3.60;;;8.70;89.40;;;;;;4992754;28;20110;-77
2022/01/17 01:29:04;;;;;;;7.63;2.90;;;8.70;90.00;;;;;;4993747;28;20107;-74
2022/01/17 01:31:43;;;;;;;7.65;2.90;;;8.70;89.50;;;;;;4992130;28;20082;-77
2022/01/17 01:34:10;;;;;;;9.93;3.05;;;8.70;89.40;;;;;;4993792;28;20018;-77
2022/01/17 01:36:36;;;;;;;8.68;3.20;;;8.70;89.40;;;;;;4992403;28;20034;-76
2022/01/17 01:39:05;;;;;;;9.13;2.95;;;8.70;89.40;;;;;;4993451;28;20022;-75
2022/01/17 01:41:37;;;;;;;9.35;2.97;;;8.70;89.40;;;;;;4993350;28;20026;-76
2022/01/17 01:44:03;;;;;;;;;;;8.70;89.40;;;;;;4994051;28;20050;-78
2022/01/17 01:46:29;;;;;;;7.25;2.45;;;8.70;89.40;;;;;;4993590;28;20396;-77
2022/01/17 01:48:54;;;;;;;7.43;2.60;;;8.70;89.40;;;;;;4993493;28;20032;-77
2022/01/17 01:51:20;;;;;;;7.18;2.63;;;8.70;89.40;;;;;;4991997;28;20061;-76
2022/01/17 01:53:46;;;;;;;7.93;2.75;;;8.70;89.40;;;;;;4991640;28;20452;-76
2022/01/17 01:56:11;;;;;;;7.07;2.53;;;8.70;89.40;;;;;;4993416;28;20027;-76
2022/01/17 01:58:40;;;;;;;5.78;2.20;;;8.70;89.40;;;;;;4992039;28;20034;-77
2022/01/17 02:01:05;;;;;;;4.72;1.88;;;8.70;89.40;;;;;;4991786;28;20662;-77
2022/01/17 02:03:31;;;;;;;6.88;2.38;;;8.70;89.30;;;;;;4991894;28;20038;-75
2022/01/17 02:05:56;;;;;;;8.05;2.00;;;8.70;89.20;;;;;;4992065;28;20057;-76
2022/01/17 02:08:22;;;;;;;5.47;1.88;;;8.70;89.20;;;;;;4991929;28;20117;-76
2022/01/17 02:10:47;;;;;;;5.60;1.83;;;8.70;89.10;;;;;;4992894;28;20053;-78
2022/01/17 02:13:13;;;;;;;6.60;1.83;;;8.70;89.10;;;;;;4992058;28;20018;-77
2022/01/17 02:15:40;;;;;;;5.18;1.85;;;8.70;89.00;;;;;;4991931;28;20018;-76
2022/01/17 02:18:07;;;;;;;5.63;1.75;;;8.70;89.00;;;;;;4993118;28;20072;-76
2022/01/17 02:20:45;;;;;;;5.45;2.08;;;8.70;89.00;;;;;;4991559;28;20030;-77
2022/01/17 02:23:11;;;;;;;5.57;1.60;;;8.70;89.00;;;;;;4991812;28;20026;-76
2022/01/17 02:25:37;;;;;;;5.75;1.80;;;8.70;89.40;;;;;;4991847;28;20073;-76
2022/01/17 02:28:03;;;;;;;5.40;1.52;;;8.70;89.00;;;;;;4991682;28;20116;-77
2022/01/17 02:30:31;;;;;;;6.03;1.70;;;8.70;88.90;;;;;;4992678;28;20022;-76
2022/01/17 02:32:58;;;;;;;11.68;1.70;;;8.70;88.80;;;;;;4992966;28;20385;-76
2022/01/17 02:35:25;;;;;;;6.22;1.63;;;8.70;88.90;;;;;;4992933;28;20028;-77
2022/01/17 02:37:52;;;;;;;5.97;1.60;;;8.70;88.90;;;;;;4992900;28;20033;-74
2022/01/17 02:40:19;;;;;;;5.10;1.45;;;8.70;88.80;;;;;;4991412;28;20026;-76
2022/01/17 02:42:50;;;;;;;5.60;1.63;;;8.70;88.70;;;;;;4991765;28;20121;-76
2022/01/17 02:48:03;;;;;;;8.82;1.83;;;8.70;88.70;;;;;;4992924;28;20037;-76
2022/01/17 02:50:29;;;;;;;7.88;1.77;;;8.70;88.70;;;;;;4992536;28;20025;-76
2022/01/17 02:53:04;;;;;;;5.93;1.63;;;8.70;88.70;;;;;;4991465;28;20113;-76
2022/01/17 02:55:30;;;;;;;7.95;1.50;;;8.70;88.60;;;;;;4991590;28;20030;-77
2022/01/17 02:57:56;;;;;;;7.18;1.40;;;8.70;88.70;;;;;;4991542;28;20583;-75
2022/01/17 03:00:22;;;;;;;6.18;1.42;;;8.70;88.60;;;;;;4991164;28;20481;-76
2022/01/17 03:02:49;;;;;;;7.25;1.58;;;8.70;88.60;;;;;;4991475;28;20081;-75
2022/01/17 03:05:19;;;;;;;8.43;1.65;;;8.70;88.60;;;;;;4992743;28;20101;-77
2022/01/17 03:07:46;;;;;;;5.20;1.48;;;8.70;88.60;;;;;;4996644;28;20413;-75
2022/01/17 03:10:26;;;;;;;6.75;1.85;;;8.70;88.60;;;;;;4996479;28;20022;-75
2022/01/17 03:12:52;;;;;;;5.45;1.25;;;8.70;88.60;;;;;;4995162;28;20029;-73
2022/01/17 03:15:20;;;;;;;5.95;1.40;;;8.70;88.70;;;;;;4994967;28;20023;-75
2022/01/17 03:17:45;;;;;;;4.32;1.20;;;8.70;88.60;;;;;;5035002;23;20133;-77
2022/01/17 03:20:11;;;;;;;6.57;1.42;;;8.70;88.60;;;;;;5013573;28;20123;-76
2022/01/17 03:22:39;;;;;;;7.68;1.50;;;8.70;88.50;;;;;;5014599;28;20025;-77
2022/01/17 03:25:05;;;;;;;3.97;1.20;;;8.70;88.50;;;;;;5014716;28;20069;-77
2022/01/17 03:27:31;;;;;;;4.88;1.42;;;8.70;88.50;;;;;;5015731;28;20022;-77
2022/01/17 03:29:56;;;;;;;6.03;1.52;;;8.70;88.50;;;;;;5014483;28;20026;-76
2022/01/17 03:32:21;;;;;;;6.53;1.45;;;8.70;88.50;;;;;;5015822;28;20032;-78
2022/01/17 03:34:47;;;;;;;6.07;1.58;;;8.70;88.50;;;;;;5015922;28;20536;-77
2022/01/17 03:37:12;;;;;;;5.05;1.13;;;8.70;88.50;;;;;;5015896;28;20041;-77
2022/01/17 03:39:38;;;;;;;5.80;1.42;;;8.70;88.50;;;;;;5015612;28;20030;-78
2022/01/17 03:42:04;;;;;;;6.57;1.92;;;8.70;88.40;;;;;;5014139;28;20080;-77
2022/01/17 03:44:29;;;;;;;8.57;1.60;;;8.70;88.30;;;;;;5014367;28;20511;-76
2022/01/17 03:46:55;;;;;;;5.03;1.30;;;8.70;88.40;;;;;;5011559;28;20036;-77
2022/01/17 03:49:20;;;;;;;9.05;1.67;;;8.70;88.40;;;;;;5014007;28;20061;-77
2022/01/17 03:51:46;;;;;;;5.82;1.35;;;8.70;88.30;;;;;;5013753;28;20052;-77
2022/01/17 03:54:11;;;;;;;6.50;1.48;;;8.70;88.30;;;;;;5014215;28;20049;-77
2022/01/17 03:56:37;;;;;;;6.88;1.42;;;8.70;88.30;;;;;;5014145;28;20064;-77
2022/01/17 03:59:02;;;;;;;6.45;1.30;;;8.80;88.30;;;;;;5014077;28;20166;-77
2022/01/17 04:01:28;;;;;;;8.80;1.40;;;8.70;88.30;;;;;;5014172;28;20033;-77
2022/01/17 04:03:53;;;;;;;7.10;1.40;;;8.70;88.30;;;;;;5014026;28;20026;-77
2022/01/17 04:06:19;;;;;;;5.22;1.50;;;8.70;88.30;;;;;;5014073;28;20452;-77
2022/01/17 04:08:44;;;;;;;8.20;1.52;;;8.70;88.20;;;;;;5015026;28;20481;-77
2022/01/17 04:11:11;;;;;;;6.85;1.65;;;8.70;88.20;;;;;;5013452;28;20018;-77
2022/01/17 04:13:36;;;;;;;8.13;1.60;;;8.70;88.20;;;;;;5013682;28;20404;-77
2022/01/17 04:16:02;;;;;;;7.88;1.60;;;8.70;88.20;;;;;;5014650;28;20101;-77
2022/01/17 04:18:29;;;;;;;5.05;1.30;;;8.70;88.10;;;;;;5013470;28;20030;-77
2022/01/17 04:20:55;;;;;;;9.82;2.25;;;8.70;88.20;;;;;;5013387;28;20045;-77
2022/01/17 04:23:21;;;;;;;6.65;1.50;;;8.70;88.60;;;;;;5014992;28;20022;-77
2022/01/17 04:25:48;;;;;;;9.13;1.60;;;8.70;88.20;;;;;;5013511;28;20026;-77
2022/01/17 04:28:14;;;;;;;7.07;1.95;;;8.70;88.20;;;;;;5014799;28;20022;-77
2022/01/17 04:30:41;;;;;;;7.57;1.38;;;8.70;88.10;;;;;;5014357;28;20026;-77
2022/01/17 04:33:07;;;;;;;6.65;1.50;;;8.70;88.10;;;;;;5014762;28;20050;-77
2022/01/17 04:35:34;;;;;;;6.95;1.50;;;8.70;88.10;;;;;;5013387;28;20022;-76
2022/01/17 04:38:04;;;;;;;7.20;1.40;;;8.70;88.10;;;;;;5013195;28;20026;-77
2022/01/17 04:40:35;;;;;;;4.88;1.23;;;8.70;88.10;;;;;;5012913;28;20397;-77
2022/01/17 04:43:06;;;;;;;8.52;1.48;;;8.70;88.10;;;;;;5014560;28;20022;-77
2022/01/17 04:45:32;;;;;;;6.93;1.40;;;8.70;88.10;;;;;;5013299;28;20101;-78
2022/01/17 04:47:58;;;;;;;6.10;1.80;;;8.70;88.00;;;;;;5013055;28;20028;-77
2022/01/17 04:50:26;;;;;;;5.80;1.75;;;8.70;88.10;;;;;;5012915;28;20030;-77
2022/01/17 04:52:57;;;;;;;7.38;1.50;;;8.70;88.00;;;;;;5014448;28;20085;-77
2022/01/17 04:55:24;;;;;;;7.03;1.50;;;8.70;88.00;;;;;;5012952;28;20113;-77
2022/01/17 04:57:50;;;;;;;7.03;1.40;;;8.70;88.00;;;;;;5014065;28;20484;-77
2022/01/17 05:00:19;;;;;;;6.50;1.42;;;8.70;87.90;;;;;;5012829;28;20040;-76
2022/01/17 05:02:45;;;;;;;6.25;1.48;;;8.70;87.90;;;;;;5012981;28;20088;-76
2022/01/17 05:05:12;;;;;;;6.88;1.58;;;8.70;87.90;;;;;;5014066;28;20029;-77
2022/01/17 05:07:39;;;;;;;8.55;1.80;;;8.70;87.90;;;;;;5013813;28;20037;-77
2022/01/17 05:10:08;;;;;;;9.18;1.88;;;8.70;87.80;;;;;;5013903;28;20038;-76
2022/01/17 05:12:34;;;;;;;7.70;1.75;;;8.70;87.80;;;;;;5012574;28;20389;-77
2022/01/17 05:14:59;;;;;;;8.70;1.52;;;8.70;87.70;;;;;;5012708;28;20018;-77
2022/01/17 05:19:57;;;;;;;9.00;1.60;;;8.70;87.70;;;;;;5013999;28;20029;-77
2022/01/17 05:22:25;;;;;;;9.27;1.95;;;8.70;87.70;;;;;;5014059;28;20108;-76
2022/01/17 05:24:51;;;;;;;7.93;1.80;;;8.70;88.20;;;;;;5011209;28;20036;-76
2022/01/17 05:27:17;;;;;;;8.23;1.60;;;8.70;87.80;;;;;;5011384;28;20042;-76
2022/01/17 05:29:43;;;;;;;9.23;1.73;;;8.70;87.60;;;;;;5010056;28;20026;-77
2022/01/17 05:32:08;;;;;;;9.35;1.50;;;8.70;87.60;;;;;;5010419;28;20030;-77
2022/01/17 05:34:34;;;;;;;8.70;1.70;;;8.70;87.60;;;;;;5012513;28;20116;-78
2022/01/17 05:37:01;;;;;;;6.53;1.50;;;8.70;87.50;;;;;;5011970;28;20041;-79
2022/01/17 05:39:27;;;;;;;8.07;2.13;;;8.70;87.60;;;;;;5010450;28;20034;-80
2022/01/17 05:41:52;;;;;;;8.15;1.58;;;8.70;87.50;;;;;;5011468;28;20030;-79
2022/01/17 05:44:18;;;;;;;8.77;1.88;;;8.70;87.50;;;;;;5011342;28;20030;-80
2022/01/17 05:46:43;;;;;;;8.02;1.40;;;8.70;87.50;;;;;;5010137;28;20033;-79
2022/01/17 05:49:09;;;;;;;8.40;1.63;;;8.70;87.50;;;;;;5012480;28;20049;-78
2022/01/17 05:51:35;;;;;;;8.57;1.73;;;8.70;87.50;;;;;;5011940;28;20026;-79
2022/01/17 05:54:00;;;;;;;8.40;1.50;;;8.70;87.40;;;;;;5012118;28;20137;-79
2022/01/17 05:56:26;;;;;;;9.05;1.98;;;8.70;87.50;;;;;;5011496;28;20033;-79
2022/01/17 05:58:51;;;;;;;8.95;1.52;;;8.70;87.30;;;;;;5011739;28;20030;-80
2022/01/17 06:01:17;;;;;;;8.13;1.88;;;8.70;87.40;;;;;;5011139;28;20037;-79
2022/01/17 06:03:42;;;;;;;9.55;1.77;;;8.70;87.30;;;;;;5012656;28;20037;-77
2022/01/17 06:06:08;;;;;;;6.78;1.50;;;8.60;87.30;;;;;;5012708;28;20065;-79
2022/01/17 06:08:34;;;;;;;8.90;1.92;;;8.70;87.30;;;;;;5012927;28;20120;-81
2022/01/17 06:11:00;;;;;;;7.18;1.55;;;8.70;87.20;;;;;;5011634;28;20040;-82
2022/01/17 06:13:26;;;;;;;8.68;1.92;;;8.70;87.20;;;;;;5011714;28;20026;-80
2022/01/17 06:15:51;;;;;;;9.60;1.73;;;8.70;87.20;;;;;;5011831;28;20041;-79
2022/01/17 06:18:17;;;;;;;11.98;2.28;;;8.70;87.20;;;;;;5012071;28;20033;-78
2022/01/17 06:20:42;;;;;;;8.68;1.73;;;8.70;87.20;;;;;;5011143;28;20108;-84
2022/01/17 06:23:08;;;;;;;8.13;1.45;;;8.70;87.20;;;;;;5012427;28;20828;-79
2022/01/17 06:25:34;;;;;;;9.10;1.58;;;8.70;87.20;;;;;;5011671;28;20037;-78
2022/01/17 06:27:59;;;;;;;6.68;1.48;;;8.70;87.10;;;;;;5010781;28;20032;-77
2022/01/17 06:30:25;;;;;;;8.00;1.40;;;8.70;87.10;;;;;;5021155;28;20080;-77
2022/01/17 06:32:51;;;;;;;8.05;1.50;;;8.70;87.10;;;;;;5031465;28;20087;-78
2022/01/17 06:35:17;;;;;;;8.18;1.52;;;8.70;87.00;;;;;;5022156;28;20022;-77
2022/01/17 06:37:44;;;;;;;8.82;1.85;;;8.60;87.10;;;;;;5009919;28;20125;-77
2022/01/17 06:40:10;;;;;;;8.73;1.85;;;8.70;87.20;;;;;;5011819;28;20038;-77
2022/01/17 06:42:36;;;;;;;9.98;1.88;;;8.70;87.10;;;;;;5014553;28;20033;-77
2022/01/17 06:45:04;;;;;;;9.43;1.67;;;8.60;87.10;;;;;;5016111;28;20026;-77
2022/01/17 06:47:34;;;;;;;9.95;1.50;;;8.60;87.10;;;;;;5014130;28;20034;-78
2022/01/17 06:50:01;;;;;;;5.60;1.30;;;8.70;87.20;;;;;;5014365;28;20061;-78
2022/01/17 06:52:26;;;;;;;9.27;1.90;;;8.60;87.10;;;;;;5014047;28;20072;-79
2022/01/17 06:54:53;;;;;;;9.40;1.83;;;8.60;87.10;;;;;;5014184;28;20030;-77
2022/01/17 06:57:19;;;;;;;6.47;1.63;;;8.60;87.20;;;;;;5011428;28;20053;-77
2022/01/17 06:59:45;;;;;;;9.30;1.80;;;8.60;87.10;;;;;;5011748;28;20026;-77
2022/01/17 07:02:11;;;;;;;7.28;1.83;;;8.60;87.10;;;;;;5011349;28;20550;-78
2022/01/17 07:04:36;;;;;;;9.98;1.80;;;8.60;87.10;;;;;;5011908;28;20037;-77
2022/01/17 07:07:03;;;;;;;8.60;1.45;;;8.60;87.20;;;;;;5010880;28;20041;-77
2022/01/17 07:09:29;;;;;;;6.93;1.63;;;8.60;87.20;;;;;;5012709;28;20160;-77
2022/01/17 07:11:58;;;;;;;7.35;1.77;;;8.60;87.20;;;;;;5013888;28;20026;-78
2022/01/17 07:14:26;;;;;;;8.50;1.83;;;8.60;87.30;;;;;;5015563;28;20492;-79
2022/01/17 07:16:51;;;;;;;8.55;1.35;;;8.60;87.30;;;;;;5014158;28;20116;-77
2022/01/17 07:19:17;;;;;;;9.13;1.60;;;8.60;87.20;;;;;;5014385;28;20135;-78
2022/01/17 07:21:42;;;;;;;8.68;1.38;;;8.60;87.30;;;;;;5014758;28;20033;-77
2022/01/17 07:24:08;;;;;;;9.15;1.48;;;8.60;87.30;;;;;;5015061;28;20096;-78
2022/01/17 07:26:34;;;;;;;8.43;1.70;;;8.60;87.40;;;;;;5014516;28;20036;-79
2022/01/17 07:29:00;;;;;;;9.70;1.77;;;8.60;87.40;;;;;;5013141;28;20045;-77
2022/01/17 07:31:26;;;;;;;9.88;1.85;;;8.60;87.40;;;;;;5013378;28;20025;-77
2022/01/17 07:33:51;;;;;;;9.00;2.03;;;8.60;87.40;;;;;;5013144;28;20026;-79
2022/01/17 07:36:19;;;;;;;8.93;1.88;;;8.60;87.30;;;;;;5014247;28;20022;-77
2022/01/17 07:38:46;;;;;;;7.30;1.42;;;8.60;87.30;;;;;;5011492;28;20037;-78
2022/01/17 07:41:11;;;;;;;10.32;1.60;;;8.60;87.20;;;;;;5013070;28;20030;-77
2022/01/17 07:43:38;;;;;;;10.70;2.03;;;8.60;87.30;;;;;;5013218;28;20041;-77
2022/01/17 07:51:15;;;;;;;8.80;1.63;;;8.60;87.40;;;;;;5012083;28;20064;-77
2022/01/17 07:53:40;;;;;;;10.68;1.73;;;8.60;87.50;;;;;;5011283;28;20512;-77
2022/01/17 07:56:06;;;;;;;9.75;1.73;;;8.60;87.50;;;;;;5010808;28;20026;-76
2022/01/17 07:58:31;;;;;;;8.00;1.75;;;8.60;87.50;;;;;;5012533;28;20030;-77
2022/01/17 08:00:57;;;;;;;8.98;2.30;;;8.60;87.60;;;;;;5014087;28;20038;-78
2022/01/17 08:03:22;;;;;;;6.65;1.60;;;8.60;88.00;;;;;;5013598;28;20029;-78
2022/01/17 08:05:48;;;;;;;8.98;1.70;;;8.60;87.60;;;;;;5010892;28;20034;-77
2022/01/17 08:08:13;;;;;;;10.43;1.92;;;8.60;87.60;;;;;;5010980;28;20409;-76
2022/01/17 08:10:39;;;;;;;6.10;1.90;;;8.60;87.70;;;;;;5010296;28;20113;-76
2022/01/17 08:13:05;;;;;;;10.43;2.33;;;8.60;87.80;;;;;;5010966;28;20109;-77
2022/01/17 08:15:31;;;;;;;6.80;1.50;;;8.60;87.70;;;;;;5010549;28;20106;-78
2022/01/17 08:17:57;;;;;;;8.52;1.88;;;8.60;87.80;;;;;;5010679;28;20455;-77
2022/01/17 08:20:23;;;;;;;10.63;1.85;;;8.60;87.70;;;;;;5010146;28;20029;-77
2022/01/17 08:22:48;;;;;;;8.52;2.03;;;8.60;87.70;;;;;;5010696;28;20022;-77
2022/01/17 08:25:16;;;;;;;8.93;2.03;;;8.60;87.80;;;;;;5011351;28;20057;-78
2022/01/17 08:27:41;;;;;;;7.63;2.13;;;8.60;87.90;;;;;;5013876;28;20026;-76
2022/01/17 08:30:08;;;;;;;9.30;2.15;;;8.60;87.90;;;;;;5014083;28;20025;-78
2022/01/17 08:32:33;;;;;;;8.95;2.58;;;8.60;88.00;;;;;;5013669;28;20022;-77
2022/01/17 08:34:59;;;;;;;8.05;2.05;;;8.60;88.00;;;;;;5011722;28;20109;-77
2022/01/17 08:37:26;;;;;;;7.32;2.42;;;8.60;88.10;;;;;;5011231;28;20026;-76
2022/01/17 08:39:52;;;;;;;10.13;2.08;;;8.60;88.10;;;;;;5011869;28;20029;-77
2022/01/17 08:42:18;;;;;;;8.98;2.67;;;8.60;88.00;;;;;;5012053;28;20029;-78
2022/01/17 08:44:50;;;;;;;8.07;2.40;;;8.60;88.00;;;;;;5010880;28;20120;-77
2022/01/17 08:47:16;;;;;;;7.50;2.05;;;8.60;88.10;;;;;;5010611;28;20026;-76
2022/01/17 08:49:42;;;;;;;7.88;2.20;;;8.60;88.20;;;;;;5010522;28;20053;-77
2022/01/17 08:52:09;;;;;;;7.93;2.30;;;8.60;88.20;;;;;;5010968;28;20060;-75
2022/01/17 08:54:35;;;;;;;10.32;3.20;;;8.60;88.40;;;;;;5010845;28;20030;-79
2022/01/17 08:57:00;;;;;;;7.65;2.33;;;8.60;88.40;;;;;;5012012;28;20029;-78
2022/01/17 08:59:28;;;;;;;10.00;2.85;;;8.60;88.60;;;;;;5012256;28;20037;-76
2022/01/17 09:01:54;;;;;;;8.73;2.40;;;8.60;88.60;;;;;;5010402;28;20064;-77
2022/01/17 09:04:19;;;;;;;7.53;2.80;;;8.60;88.60;;;;;;5012160;28;20061;-77
2022/01/17 09:06:46;;;;;;;8.05;2.80;;;8.60;88.70;;;;;;5010249;28;20026;-78
2022/01/17 09:09:11;;;;;;;6.95;2.72;;;8.60;88.70;;;;;;5010432;28;20030;-78
2022/01/17 09:11:37;;;;;;;8.35;3.00;;;8.60;88.70;;;;;;5010551;28;20034;-77
2022/01/17 09:14:02;;;;;;;7.70;2.80;;;8.60;88.80;;;;;;5011745;28;20034;-77
2022/01/17 09:16:28;;;;;;;10.10;3.08;;;8.60;88.90;;;;;;5010093;28;20168;-76
2022/01/17 09:18:54;;;;;;;9.68;3.30;;;8.60;88.90;;;;;;5011750;28;20061;-77
2022/01/17 09:21:20;;;;;;;9.57;2.85;;;8.60;89.00;;;;;;5010033;28;20128;-76
2022/01/17 09:23:45;;;;;;;8.05;2.92;;;8.60;89.00;;;;;;5011759;28;20032;-76
2022/01/17 09:26:11;;;;;;;9.32;3.10;;;8.60;89.10;;;;;;5009851;28;20033;-76
2022/01/17 09:28:36;;;;;;;9.63;3.30;;;8.60;89.10;;;;;;5011226;28;20069;-75
2022/01/17 09:31:02;;;;;;;8.50;3.28;;;8.60;89.20;;;;;;5010793;28;20231;-76
2022/01/17 09:33:28;;;;;;;9.38;3.28;;;8.60;89.20;;;;;;5010280;28;20026;-76
2022/01/17 09:35:54;;;;;;;8.60;3.28;;;8.60;89.30;;;;;;5009942;28;20083;-80
2022/01/17 09:38:19;;;;;;;9.23;3.50;;;8.60;89.30;;;;;;5010216;28;20026;-76
2022/01/17 09:40:45;;;;;;;7.57;2.95;;;8.60;89.40;;;;;;5010799;28;20033;-77
2022/01/17 09:43:10;;;;;;;7.95;3.08;;;8.60;89.40;;;;;;5010001;28;20034;-76
2022/01/17 09:45:36;;;;;;;8.27;3.40;;;8.60;89.50;;;;;;5009950;28;20029;-76
2022/01/17 09:48:04;;;;;;;9.05;3.20;;;8.60;89.50;;;;;;5009803;28;20068;-77
2022/01/17 09:50:35;;;;;;;8.23;3.03;;;8.60;89.60;;;;;;5009617;28;20026;-78
2022/01/17 09:53:02;;;;;;;7.28;3.08;;;8.60;89.70;;;;;;5009602;28;20017;-78
2022/01/17 09:55:29;;;;;;;8.68;3.28;;;8.60;89.70;;;;;;5007975;28;20068;-76
2022/01/17 09:58:06;;;;;;;9.10;3.85;;;8.60;89.80;;;;;;5007775;28;20037;-76
2022/01/17 10:00:43;;;;;;;7.97;3.00;;;8.60;89.90;;;;;;5008800;28;20068;-77
2022/01/17 10:03:13;;;;;;;9.07;3.72;;;8.60;89.90;;;;;;5007913;28;20151;-75
2022/01/17 10:05:39;;;;;;;10.60;3.35;;;8.60;89.90;;;;;;5007818;28;20026;-76
2022/01/17 10:08:11;;;;;;;9.43;3.63;;;8.60;90.00;;;;;;5007681;28;20088;-77
2022/01/17 10:10:50;;;;;;;9.20;3.20;;;8.60;90.00;;;;;;5009681;28;20034;-77
2022/01/17 10:13:41;;;;;;;7.63;2.83;;;8.60;90.00;;;;;;5009087;28;20637;-77
2022/01/17 10:16:21;;;;;;;9.68;2.90;;;8.60;90.00;;;;;;5007381;28;20080;-78
2022/01/17 10:18:55;;;;;;;7.95;3.10;;;8.60;90.00;;;;;;5007964;28;20036;-77
2022/01/17 10:21:34;;;;;;;7.22;2.90;;;8.60;90.00;;;;;;5007141;28;20040;-76
2022/01/17 10:37:13;;;;;;;6.82;2.75;;;8.60;90.20;;;;;;5009152;28;20041;-75
2022/01/17 10:39:59;;;;;;;8.65;2.70;;;8.60;90.20;;;;;;5008997;28;20022;-75
2022/01/17 10:42:37;;;;;;;6.80;2.63;;;8.60;90.30;;;;;;5008803;28;20030;-75
2022/01/17 10:45:09;;;;;;;7.55;2.60;;;8.60;90.30;;;;;;5009157;28;20026;-76
2022/01/17 10:47:37;;;;;;;7.05;3.00;;;8.60;90.30;;;;;;5008900;28;20022;-77
2022/01/17 10:50:14;;;;;;;7.32;2.67;;;8.60;90.40;;;;;;5007417;28;20061;-77
2022/01/17 10:52:43;;;;;;;7.60;2.83;;;8.60;90.40;;;;;;5008881;28;20022;-75
2022/01/17 10:55:19;;;;;;;6.55;2.90;;;8.60;90.40;;;;;;5008823;28;20077;-75
2022/01/17 10:57:48;;;;;;;6.43;2.97;;;8.60;90.30;;;;;;5007771;28;20030;-75
2022/01/17 11:00:21;;;;;;;8.55;2.80;;;8.60;90.40;;;;;;5008728;28;20064;-77
2022/01/17 11:02:52;;;;;;;9.32;3.17;;;8.60;90.40;;;;;;5007623;28;20061;-75
2022/01/17 11:05:21;;;;;;;8.57;2.60;;;8.60;90.40;;;;;;5007277;28;20025;-76
2022/01/17 11:07:49;;;;;;;7.53;2.60;;;8.60;90.50;;;;;;5007280;28;20420;-78
2022/01/17 11:10:39;;;;;;;8.60;2.72;;;8.60;90.50;;;;;;5008092;28;20018;-77
2022/01/17 11:13:11;;;;;;;8.48;2.83;;;8.60;90.50;;;;;;4997612;28;20048;-77
2022/01/17 11:15:39;;;;;;;8.02;2.40;;;8.70;90.60;;;;;;5007658;28;20397;-79
2022/01/17 11:18:21;;;;;;;7.93;2.72;;;8.60;90.50;;;;;;5008647;28;20036;-75
2022/01/17 11:20:49;;;;;;;7.78;2.72;;;8.60;90.60;;;;;;5008086;28;20034;-77
2022/01/17 11:23:14;;;;;;;9.68;2.80;;;8.60;90.60;;;;;;5007466;28;20080;-75
2022/01/17 11:25:43;;;;;;;8.55;2.80;;;8.60;90.70;;;;;;5006293;28;20664;-78
2022/01/17 11:28:10;;;;;;;9.57;3.40;;;8.60;90.60;;;;;;5012274;28;20507;-77
2022/01/17 11:30:38;;;;;;;8.23;2.75;;;8.60;90.60;;;;;;5012596;28;20400;-77
2022/01/17 11:33:08;;;;;;;10.50;3.33;;;8.60;90.60;;;;;;5014396;28;20037;-78
2022/01/17 11:35:37;;;;;;;10.25;3.25;;;8.60;90.70;;;;;;5012141;28;20026;-77
2022/01/17 11:38:04;;;;;;;12.80;3.30;;;8.60;90.70;;;;;;5013008;28;20034;-77
2022/01/17 11:40:33;;;;;;;9.10;2.88;;;8.60;90.70;;;;;;5012552;28;20799;-76
2022/01/17 11:43:00;;;;;;;13.25;3.72;;;8.60;90.70;;;;;;5012381;28;20049;-77
2022/01/17 11:45:29;;;;;;;8.73;3.10;;;8.70;90.80;;;;;;5012650;28;20033;-78
2022/01/17 11:48:04;;;;;;;10.13;3.20;;;8.70;90.80;;;;;;5013138;28;20030;-76
2022/01/17 11:52:57;;;;;;;12.18;3.08;;;8.70;90.70;;;;;;5014372;28;20588;-76
2022/01/17 11:55:38;;;;;;;10.48;3.50;;;8.70;90.80;;;;;;5012463;28;20022;-77
2022/01/17 11:58:29;;;;;;;9.95;3.33;;;8.70;90.80;;;;;;5014627;28;20026;-77
2022/01/17 12:00:59;;;;;;;9.40;3.17;;;8.70;90.80;;;;;;5013319;28;20044;-78
2022/01/17 12:03:45;;;;;;;10.02;3.13;;;8.70;90.80;;;;;;5013643;28;20037;-77
2022/01/17 12:06:20;;;;;;;10.30;3.22;;;8.70;90.80;;;;;;5014534;28;20048;-77
2022/01/17 12:08:46;;;;;;;12.63;3.60;;;8.70;90.80;;;;;;5013503;28;20709;-76
2022/01/17 12:11:27;;;;;;;11.13;3.47;;;8.70;90.80;;;;;;5011262;28;20024;-76
2022/01/17 12:13:53;;;;;;;;;;;8.70;90.80;;;;;;5013252;28;20030;-78
2022/01/17 12:16:27;;;;;;;14.02;4.10;;;8.70;90.80;;;;;;5012720;28;19936;-76
2022/01/17 12:18:59;;;;;;;13.48;3.78;;;8.70;90.80;;;;;;5012659;28;20026;-77
2022/01/17 12:21:33;;;;;;;14.65;4.38;;;8.70;90.80;;;;;;5009567;28;20030;-77
2022/01/17 12:24:25;;;;;;;12.35;3.80;;;8.70;90.70;;;;;;5011223;28;20026;-75
2022/01/17 12:27:01;;;;;;;12.10;3.50;;;8.80;90.80;;;;;;5003228;28;20065;-76
2022/01/17 12:29:37;;;;;;;12.30;3.80;;;8.80;90.70;;;;;;5010373;28;20602;-76
2022/01/17 12:32:05;;;;;;;13.55;4.05;;;8.90;90.70;;;;;;5009377;28;20026;-75
2022/01/17 12:34:40;;;;;;;12.80;3.63;;;8.80;90.60;;;;;;5010564;28;20101;-76
2022/01/17 12:37:34;;;;;;;13.30;3.20;;;8.80;90.70;;;;;;5010486;28;20481;-77
2022/01/17 12:40:11;;;;;;;15.30;3.83;;;8.80;90.70;;;;;;5012491;28;20030;-76
2022/01/17 12:42:55;;;;;;;17.70;4.00;;;8.80;90.70;;;;;;5009118;28;20034;-75
2022/01/17 12:45:33;;;;;;;11.77;3.60;;;8.90;90.90;;;;;;5009580;28;20029;-78
2022/01/17 12:48:00;;;;;;;15.35;3.75;;;8.80;90.70;;;;;;5010336;28;20485;-75
2022/01/17 12:50:28;;;;;;;15.65;3.85;;;8.80;90.80;;;;;;5009024;28;20547;-76
2022/01/17 12:52:59;;;;;;;13.07;3.28;;;8.80;90.80;;;;;;5009293;28;20029;-75
2022/01/17 12:55:32;;;;;;;15.77;3.97;;;8.80;90.90;;;;;;5008984;28;20018;-75
2022/01/17 12:57:58;;;;;;;12.45;3.35;;;8.80;90.90;;;;;;5009077;28;20042;-76
2022/01/17 13:00:26;;;;;;;11.35;3.33;;;8.80;91.10;;;;;;5009891;28;20022;-75
2022/01/17 13:02:53;;;;;;;13.75;3.78;;;8.80;90.90;;;;;;5009174;28;20033;-76
2022/01/17 13:05:28;;;;;;;15.63;3.80;;;8.80;90.90;;;;;;5008998;28;20486;-76
2022/01/17 13:07:54;;;;;;;13.98;3.30;;;8.80;90.90;;;;;;5008626;28;20034;-78
2022/01/17 13:10:20;;;;;;;13.82;3.42;;;8.80;90.90;;;;;;5009637;28;20049;-75
2022/01/17 13:12:50;;;;;;;13.68;3.38;;;8.80;90.90;;;;;;5008635;28;20102;-75
2022/01/17 13:15:16;;;;;;;12.18;3.20;;;8.80;91.00;;;;;;5008829;28;20026;-78
2022/01/17 13:17:41;;;;;;;14.93;3.78;;;8.80;91.00;;;;;;5009851;28;20044;-76
2022/01/17 13:20:08;;;;;;;14.00;4.00;;;8.80;91.00;;;;;;5008928;28;20037;-77
2022/01/17 13:22:41;;;;;;;13.10;3.60;;;8.80;91.10;;;;;;5010100;28;20030;-76
2022/01/17 13:25:08;;;;;;;14.52;3.60;;;8.80;91.10;;;;;;5010209;28;20029;-77
2022/01/17 13:27:42;;;;;;;16.75;3.97;;;8.70;91.10;;;;;;5009724;28;20033;-75
2022/01/17 13:30:09;;;;;;;13.73;3.10;;;8.80;91.20;;;;;;5008472;28;20026;-78
2022/01/17 13:32:36;;;;;;;14.45;3.53;;;8.70;91.10;;;;;;5009376;28;20026;-76
2022/01/17 13:35:14;;;;;;;18.45;4.00;;;8.70;91.20;;;;;;5008578;28;20576;-75
2022/01/17 13:37:40;;;;;;;13.85;3.33;;;8.70;91.20;;;;;;5008441;28;20033;-75